^^
Saratoga-Weather Station Historical Data
Daily Summary for December 22, 2020 Units:  Both    English   Metric
Daily Weekly Monthly Yearly Custom
  High: Low: Average:
Temperature: 57.2 °F /  14 °C 51.6 °F /  10.9 °C 55.2 °F /  12.9 °C
Dew Point: 55.2 °F /  12.9 °C 50.5 °F /  10.3 °C 53.8 °F /  12.1 °C
Humidity: 96% 92% 95%
Wind Speed: 10.1mph /  16.3km/h - 2.7mph /  4.4km/h
Wind Gust: 18mph /  29km/h - -
Wind- - WSW
Pressure: 30 in /  1016.9 hPa 29.9 in /  1013.9 hPa -
Precipitation: 0.43 in /  10.9 mm    
Historical Graphs
 
 
Tabular Data for December 22, 2020
Time Temperature Dew Point Pressure Wind Wind Speed Wind Gust Humidity Rainfall Rate (Hourly) solar
00:03 51.6 °F /  10.9 °C 50.5 °F /  10.3 °C 30in /  1014.2hPa WSW 2mph /  3.2km/h 9mph /  14.5km/h 96% 0.02in /  0.5mm 0 W/m2
00:08 51.6 °F /  10.9 °C 50.5 °F /  10.3 °C 29.9in /  1013.9hPa WNW 2.9mph /  4.7km/h 4mph /  6.4km/h 96% 0.02in /  0.5mm 0 W/m2
00:13 51.6 °F /  10.9 °C 50.5 °F /  10.3 °C 30in /  1014.2hPa SW 2.9mph /  4.7km/h 5mph /  8km/h 96% 0.02in /  0.5mm 0 W/m2
00:18 52 °F /  11.1 °C 50.9 °F /  10.5 °C 30in /  1014.2hPa NNW 8.9mph /  14.3km/h 9mph /  14.5km/h 96% 0.02in /  0.5mm 0 W/m2
00:23 52.2 °F /  11.2 °C 51.1 °F /  10.6 °C 30in /  1014.2hPa West 6mph /  9.7km/h 9mph /  14.5km/h 96% 0.02in /  0.5mm 0 W/m2
00:28 52.3 °F /  11.3 °C 51.3 °F /  10.7 °C 30in /  1014.2hPa West 2mph /  3.2km/h 5mph /  8km/h 96% 0.02in /  0.5mm 0 W/m2
00:33 52.3 °F /  11.3 °C 51.3 °F /  10.7 °C 30in /  1014.2hPa NE 0.9mph /  1.4km/h 5mph /  8km/h 96% 0.02in /  0.5mm 0 W/m2
00:38 52.5 °F /  11.4 °C 51.4 °F /  10.8 °C 30in /  1014.2hPa West 2.9mph /  4.7km/h 5mph /  8km/h 96% 0.01in /  0.2mm 0 W/m2
00:55 53.1 °F /  11.7 °C 51.6 °F /  10.9 °C 30in /  1014.2hPa SSE 2mph /  3.2km/h 5mph /  8km/h 95% 0.01in /  0.2mm 0 W/m2
01:00 53.1 °F /  11.7 °C 51.6 °F /  10.9 °C 30in /  1014.2hPa NW 4mph /  6.4km/h 6mph /  9.7km/h 95% 0.01in /  0.2mm 0 W/m2
01:05 53.1 °F /  11.7 °C 51.6 °F /  10.9 °C 30in /  1014.2hPa WNW 2mph /  3.2km/h 7mph /  11.3km/h 95% 0.01in /  0.2mm 0 W/m2
01:10 53.1 °F /  11.7 °C 51.6 °F /  10.9 °C 30in /  1014.2hPa NNW 2.9mph /  4.7km/h 12mph /  19.3km/h 95% 0.02in /  0.5mm 0 W/m2
01:15 53.2 °F /  11.8 °C 51.8 °F /  11 °C 30in /  1014.2hPa WSW 2.9mph /  4.7km/h 16mph /  25.7km/h 95% 0.02in /  0.5mm 0 W/m2
01:20 53.2 °F /  11.8 °C 51.8 °F /  11 °C 30in /  1014.2hPa NNW 0.9mph /  1.4km/h 7mph /  11.3km/h 95% 0.02in /  0.5mm 0 W/m2
01:25 53.2 °F /  11.8 °C 51.8 °F /  11 °C 30in /  1014.2hPa SSE 6mph /  9.7km/h 16mph /  25.7km/h 95% 0.03in /  0.8mm 0 W/m2
01:30 53.2 °F /  11.8 °C 51.8 °F /  11 °C 30in /  1014.2hPa NE 2mph /  3.2km/h 5mph /  8km/h 95% 0.03in /  0.8mm 0 W/m2
01:35 53.2 °F /  11.8 °C 51.8 °F /  11 °C 29.9in /  1013.9hPa SW 2mph /  3.2km/h 12mph /  19.3km/h 95% 0.04in /  1.0mm 0 W/m2
01:40 53.2 °F /  11.8 °C 51.8 °F /  11 °C 30in /  1014.2hPa WNW 2mph /  3.2km/h 8mph /  12.9km/h 95% 0.04in /  1.0mm 0 W/m2
01:45 53.4 °F /  11.9 °C 52 °F /  11.1 °C 30in /  1014.2hPa West 6mph /  9.7km/h 9mph /  14.5km/h 95% 0.04in /  1.0mm 0 W/m2
01:50 53.8 °F /  12.1 °C 52.3 °F /  11.3 °C 30in /  1014.2hPa NW 0.9mph /  1.4km/h 14mph /  22.5km/h 95% 0.04in /  1.0mm 0 W/m2
01:55 53.8 °F /  12.1 °C 52.3 °F /  11.3 °C 30in /  1014.2hPa WSW 8.1mph /  13km/h 14mph /  22.5km/h 95% 0.04in /  1.0mm 0 W/m2
02:00 53.8 °F /  12.1 °C 52.3 °F /  11.3 °C 30in /  1014.2hPa NNE 2.9mph /  4.7km/h 5mph /  8km/h 95% 0.04in /  1.0mm 0 W/m2
02:05 53.8 °F /  12.1 °C 52.3 °F /  11.3 °C 30in /  1014.2hPa West 2.9mph /  4.7km/h 9mph /  14.5km/h 95% 0.04in /  1.0mm 0 W/m2
02:10 54 °F /  12.2 °C 52.5 °F /  11.4 °C 30in /  1014.6hPa WSW 10.1mph /  16.3km/h 12mph /  19.3km/h 95% 0.03in /  0.8mm 0 W/m2
02:15 54 °F /  12.2 °C 52.5 °F /  11.4 °C 30in /  1014.2hPa NNE 0.9mph /  1.4km/h 11mph /  17.7km/h 95% 0.03in /  0.8mm 0 W/m2
02:20 54 °F /  12.2 °C 52.5 °F /  11.4 °C 30in /  1014.2hPa ESE 2mph /  3.2km/h 2mph /  3.2km/h 95% 0.02in /  0.5mm 0 W/m2
02:25 54 °F /  12.2 °C 52.5 °F /  11.4 °C 30in /  1014.2hPa East 4mph /  6.4km/h 11mph /  17.7km/h 95% 0.02in /  0.5mm 0 W/m2
02:30 54 °F /  12.2 °C 52.5 °F /  11.4 °C 30in /  1014.6hPa North 2mph /  3.2km/h 3mph /  4.8km/h 95% 0.02in /  0.5mm 0 W/m2
02:35 54 °F /  12.2 °C 52.5 °F /  11.4 °C 30in /  1014.6hPa South 2.9mph /  4.7km/h 11mph /  17.7km/h 95% 0.02in /  0.5mm 0 W/m2
02:40 54 °F /  12.2 °C 52.5 °F /  11.4 °C 30in /  1014.6hPa WNW 2.9mph /  4.7km/h 12mph /  19.3km/h 95% 0.02in /  0.5mm 0 W/m2
02:45 54 °F /  12.2 °C 52.5 °F /  11.4 °C 30in /  1014.6hPa SW 2.9mph /  4.7km/h 8mph /  12.9km/h 95% 0.02in /  0.5mm 0 W/m2
02:50 54 °F /  12.2 °C 52.5 °F /  11.4 °C 30in /  1014.6hPa West 4mph /  6.4km/h 11mph /  17.7km/h 95% 0.02in /  0.5mm 0 W/m2
02:55 54 °F /  12.2 °C 52.5 °F /  11.4 °C 30in /  1014.6hPa SW 4.9mph /  7.9km/h 10mph /  16.1km/h 95% 0.02in /  0.5mm 0 W/m2
03:00 54 °F /  12.2 °C 52.5 °F /  11.4 °C 30in /  1014.6hPa SW 4mph /  6.4km/h 4mph /  6.4km/h 95% 0.02in /  0.5mm 0 W/m2
03:05 54 °F /  12.2 °C 52.5 °F /  11.4 °C 30in /  1014.2hPa SSW 2.9mph /  4.7km/h 11mph /  17.7km/h 95% 0.02in /  0.5mm 0 W/m2
03:10 54 °F /  12.2 °C 52.5 °F /  11.4 °C 30in /  1014.6hPa WNW 4.9mph /  7.9km/h 11mph /  17.7km/h 95% 0.02in /  0.5mm 0 W/m2
03:15 54 °F /  12.2 °C 52.5 °F /  11.4 °C 30in /  1014.6hPa NNW 2.9mph /  4.7km/h 7mph /  11.3km/h 95% 0.02in /  0.5mm 0 W/m2
03:20 54 °F /  12.2 °C 52.5 °F /  11.4 °C 30in /  1014.6hPa WNW 4mph /  6.4km/h 8mph /  12.9km/h 95% 0.02in /  0.5mm 0 W/m2
03:25 54 °F /  12.2 °C 52.5 °F /  11.4 °C 30in /  1014.2hPa West 2.9mph /  4.7km/h 8mph /  12.9km/h 95% 0.02in /  0.5mm 0 W/m2
03:30 54.1 °F /  12.3 °C 52.7 °F /  11.5 °C 30in /  1014.6hPa North 0.9mph /  1.4km/h 6mph /  9.7km/h 95% 0.02in /  0.5mm 0 W/m2
03:35 54.1 °F /  12.3 °C 52.7 °F /  11.5 °C 30in /  1014.6hPa NW 4mph /  6.4km/h 4mph /  6.4km/h 95% 0.02in /  0.5mm 0 W/m2
03:40 54.1 °F /  12.3 °C 52.7 °F /  11.5 °C 30in /  1014.6hPa East 2.9mph /  4.7km/h 12mph /  19.3km/h 95% 0.02in /  0.5mm 0 W/m2
03:45 54.1 °F /  12.3 °C 52.7 °F /  11.5 °C 30in /  1014.6hPa West 2mph /  3.2km/h 9mph /  14.5km/h 95% 0.02in /  0.5mm 0 W/m2
03:51 54.1 °F /  12.3 °C 52.7 °F /  11.5 °C 30in /  1014.6hPa WSW 2.9mph /  4.7km/h 12mph /  19.3km/h 95% 0.02in /  0.5mm 0 W/m2
03:56 54.1 °F /  12.3 °C 52.7 °F /  11.5 °C 30in /  1014.6hPa NW 0.9mph /  1.4km/h 8mph /  12.9km/h 95% 0.02in /  0.5mm 0 W/m2
04:01 54.1 °F /  12.3 °C 52.7 °F /  11.5 °C 30in /  1014.6hPa WSW 6.9mph /  11.1km/h 11mph /  17.7km/h 95% 0.02in /  0.5mm 0 W/m2
04:06 54.1 °F /  12.3 °C 52.7 °F /  11.5 °C 30in /  1014.6hPa West 2mph /  3.2km/h 9mph /  14.5km/h 95% 0.02in /  0.5mm 0 W/m2
04:11 54.1 °F /  12.3 °C 52.7 °F /  11.5 °C 30in /  1014.6hPa South 0.9mph /  1.4km/h 15mph /  24.1km/h 95% 0.02in /  0.5mm 0 W/m2
04:16 54.1 °F /  12.3 °C 52.7 °F /  11.5 °C 30in /  1014.6hPa SW 2mph /  3.2km/h 8mph /  12.9km/h 95% 0.02in /  0.5mm 0 W/m2
04:21 54.1 °F /  12.3 °C 52.7 °F /  11.5 °C 30in /  1014.6hPa SW 4.9mph /  7.9km/h 18mph /  29km/h 95% 0.03in /  0.8mm 0 W/m2
04:26 54.1 °F /  12.3 °C 52.7 °F /  11.5 °C 30in /  1014.6hPa NW 2mph /  3.2km/h 5mph /  8km/h 95% 0.02in /  0.5mm 0 W/m2
04:31 54.1 °F /  12.3 °C 52.7 °F /  11.5 °C 30in /  1014.6hPa West 6mph /  9.7km/h 10mph /  16.1km/h 95% 0.02in /  0.5mm 0 W/m2
04:36 54.1 °F /  12.3 °C 52.7 °F /  11.5 °C 30in /  1014.2hPa North 2mph /  3.2km/h 8mph /  12.9km/h 95% 0.02in /  0.5mm 0 W/m2
04:41 54.1 °F /  12.3 °C 52.7 °F /  11.5 °C 30in /  1014.6hPa SSE 2.9mph /  4.7km/h 7mph /  11.3km/h 95% 0.03in /  0.8mm 0 W/m2
04:46 54.1 °F /  12.3 °C 52.7 °F /  11.5 °C 30in /  1014.6hPa NW 2.9mph /  4.7km/h 8mph /  12.9km/h 95% 0.03in /  0.8mm 0 W/m2
04:51 54.3 °F /  12.4 °C 52.9 °F /  11.6 °C 30in /  1014.6hPa NW 2.9mph /  4.7km/h 11mph /  17.7km/h 95% 0.03in /  0.8mm 0 W/m2
04:56 54.3 °F /  12.4 °C 52.9 °F /  11.6 °C 30in /  1014.6hPa West 2mph /  3.2km/h 9mph /  14.5km/h 95% 0.02in /  0.5mm 0 W/m2
05:01 54.3 °F /  12.4 °C 52.9 °F /  11.6 °C 30in /  1014.6hPa West 2mph /  3.2km/h 5mph /  8km/h 95% 0.02in /  0.5mm 0 W/m2
05:06 54.3 °F /  12.4 °C 52.9 °F /  11.6 °C 30in /  1014.2hPa WSW 2.9mph /  4.7km/h 11mph /  17.7km/h 95% 0.03in /  0.8mm 0 W/m2
05:11 54.3 °F /  12.4 °C 52.9 °F /  11.6 °C 30in /  1014.2hPa WNW 8.1mph /  13km/h 10mph /  16.1km/h 95% 0.04in /  1.0mm 0 W/m2
05:16 54.5 °F /  12.5 °C 53.1 °F /  11.7 °C 30in /  1014.2hPa WNW 2mph /  3.2km/h 11mph /  17.7km/h 95% 0.04in /  1.0mm 0 W/m2
05:21 54.5 °F /  12.5 °C 53.1 °F /  11.7 °C 30in /  1014.6hPa South 2mph /  3.2km/h 7mph /  11.3km/h 95% 0.03in /  0.8mm 0 W/m2
05:26 54.5 °F /  12.5 °C 53.1 °F /  11.7 °C 30in /  1014.6hPa NW 4mph /  6.4km/h 11mph /  17.7km/h 95% 0.04in /  1.0mm 0 W/m2
05:31 54.7 °F /  12.6 °C 53.2 °F /  11.8 °C 30in /  1014.6hPa NNW 2mph /  3.2km/h 5mph /  8km/h 95% 0.04in /  1.0mm 0 W/m2
05:36 54.7 °F /  12.6 °C 53.2 °F /  11.8 °C 30in /  1014.6hPa West 2mph /  3.2km/h 13mph /  20.9km/h 95% 0.06in /  1.5mm 0 W/m2
05:56 54.5 °F /  12.5 °C 53.1 °F /  11.7 °C 30in /  1014.6hPa South 6mph /  9.7km/h 10mph /  16.1km/h 95% 0.07in /  1.8mm 0 W/m2
06:01 54.7 °F /  12.6 °C 53.2 °F /  11.8 °C 30in /  1014.6hPa WNW 8.1mph /  13km/h 8mph /  12.9km/h 95% 0.06in /  1.5mm 0 W/m2
06:06 54.7 °F /  12.6 °C 53.2 °F /  11.8 °C 30in /  1014.6hPa NW 0.9mph /  1.4km/h 7mph /  11.3km/h 95% 0.06in /  1.5mm 0 W/m2
06:11 54.7 °F /  12.6 °C 53.2 °F /  11.8 °C 30in /  1014.6hPa WNW 8.1mph /  13km/h 9mph /  14.5km/h 95% 0.06in /  1.5mm 0 W/m2
06:16 54.7 °F /  12.6 °C 53.2 °F /  11.8 °C 30in /  1014.6hPa WSW 2.9mph /  4.7km/h 7mph /  11.3km/h 95% 0.07in /  1.8mm 0 W/m2
06:21 54.7 °F /  12.6 °C 53.2 °F /  11.8 °C 30in /  1014.6hPa West 2mph /  3.2km/h 12mph /  19.3km/h 95% 0.08in /  2.0mm 0 W/m2
06:26 54.7 °F /  12.6 °C 53.2 °F /  11.8 °C 30in /  1014.6hPa WSW 8.9mph /  14.3km/h 11mph /  17.7km/h 95% 0.07in /  1.8mm 0 W/m2
06:46 54.7 °F /  12.6 °C 53.2 °F /  11.8 °C 30in /  1014.6hPa NNW 2mph /  3.2km/h 6mph /  9.7km/h 95% 0.04in /  1.0mm 0 W/m2
06:51 54.7 °F /  12.6 °C 53.2 °F /  11.8 °C 30in /  1014.6hPa NNW 2mph /  3.2km/h 8mph /  12.9km/h 95% 0.05in /  1.3mm 0 W/m2
06:56 54.7 °F /  12.6 °C 53.2 °F /  11.8 °C 30in /  1014.6hPa North 2.9mph /  4.7km/h 9mph /  14.5km/h 95% 0.05in /  1.3mm 0 W/m2
07:01 54.7 °F /  12.6 °C 53.2 °F /  11.8 °C 30in /  1014.6hPa NNW 2.9mph /  4.7km/h 9mph /  14.5km/h 95% 0.05in /  1.3mm 0 W/m2
07:06 54.7 °F /  12.6 °C 53.2 °F /  11.8 °C 30in /  1014.6hPa North 2.9mph /  4.7km/h 9mph /  14.5km/h 95% 0.05in /  1.3mm 0 W/m2
07:25 54.7 °F /  12.6 °C 53.2 °F /  11.8 °C 30in /  1014.6hPa North 4mph /  6.4km/h 6mph /  9.7km/h 95% 0.02in /  0.5mm 0 W/m2
07:30 54.9 °F /  12.7 °C 53.4 °F /  11.9 °C 30in /  1014.9hPa WSW 10.1mph /  16.3km/h 10mph /  16.1km/h 95% 0.03in /  0.8mm 0 W/m2
07:35 54.9 °F /  12.7 °C 53.4 °F /  11.9 °C 30in /  1014.6hPa WNW 8.1mph /  13km/h 10mph /  16.1km/h 95% 0.03in /  0.8mm 0 W/m2
07:40 54.9 °F /  12.7 °C 53.4 °F /  11.9 °C 30in /  1014.9hPa SSW 4mph /  6.4km/h 9mph /  14.5km/h 95% 0.03in /  0.8mm 0 W/m2
07:45 54.9 °F /  12.7 °C 53.4 °F /  11.9 °C 30in /  1014.9hPa SSE 0.9mph /  1.4km/h 4mph /  6.4km/h 95% 0.03in /  0.8mm 0 W/m2
07:50 54.9 °F /  12.7 °C 53.4 °F /  11.9 °C 30in /  1014.9hPa NW 4mph /  6.4km/h 6mph /  9.7km/h 95% 0.02in /  0.5mm 0 W/m2
07:55 54.9 °F /  12.7 °C 53.4 °F /  11.9 °C 30in /  1014.9hPa SW 4mph /  6.4km/h 9mph /  14.5km/h 95% 0.02in /  0.5mm 0 W/m2
08:00 54.9 °F /  12.7 °C 53.4 °F /  11.9 °C 30in /  1014.9hPa North 2mph /  3.2km/h 8mph /  12.9km/h 95% 0.02in /  0.5mm 0 W/m2
08:05 54.9 °F /  12.7 °C 53.4 °F /  11.9 °C 30in /  1015.2hPa NNW 2.9mph /  4.7km/h 8mph /  12.9km/h 95% 0.01in /  0.2mm 0 W/m2
08:10 54.9 °F /  12.7 °C 53.4 °F /  11.9 °C 30in /  1015.2hPa NW 4mph /  6.4km/h 7mph /  11.3km/h 95% 0.02in /  0.5mm 0 W/m2
08:15 54.9 °F /  12.7 °C 53.4 °F /  11.9 °C 30in /  1015.2hPa NW 2.9mph /  4.7km/h 6mph /  9.7km/h 95% 0.02in /  0.5mm 0 W/m2
08:20 54.9 °F /  12.7 °C 53.4 °F /  11.9 °C 30in /  1015.2hPa West 2mph /  3.2km/h 10mph /  16.1km/h 95% 0.02in /  0.5mm 0 W/m2
08:25 54.9 °F /  12.7 °C 53.4 °F /  11.9 °C 30in /  1015.2hPa NNW 4mph /  6.4km/h 9mph /  14.5km/h 95% 0.02in /  0.5mm 0 W/m2
08:30 54.7 °F /  12.6 °C 53.2 °F /  11.8 °C 30in /  1015.2hPa WNW 2mph /  3.2km/h 10mph /  16.1km/h 95% 0.01in /  0.2mm 0 W/m2
08:35 54.7 °F /  12.6 °C 53.2 °F /  11.8 °C 30in /  1015.2hPa WNW 2.9mph /  4.7km/h 6mph /  9.7km/h 95% 0.01in /  0.2mm 0 W/m2
08:40 54.9 °F /  12.7 °C 53.4 °F /  11.9 °C 30in /  1015.2hPa Calm   9mph /  14.5km/h 95% 0.01in /  0.2mm 5 W/m2
08:45 54.9 °F /  12.7 °C 53.4 °F /  11.9 °C 30in /  1015.2hPa NNW 2mph /  3.2km/h 10mph /  16.1km/h 95% 0.01in /  0.2mm 11 W/m2
08:50 54.9 °F /  12.7 °C 53.4 °F /  11.9 °C 30in /  1015.2hPa ESE 4mph /  6.4km/h 8mph /  12.9km/h 95% 0.01in /  0.2mm 12 W/m2
08:55 54.9 °F /  12.7 °C 53.4 °F /  11.9 °C 30in /  1015.2hPa WSW 8.1mph /  13km/h 13mph /  20.9km/h 95% 0.01in /  0.2mm 12 W/m2
09:00 54.9 °F /  12.7 °C 53.4 °F /  11.9 °C 30in /  1015.2hPa West 2mph /  3.2km/h 4mph /  6.4km/h 95% 0.01in /  0.2mm 12 W/m2
09:05 54.9 °F /  12.7 °C 53.4 °F /  11.9 °C 30in /  1015.6hPa North 0.9mph /  1.4km/h 13mph /  20.9km/h 95% 0.01in /  0.2mm 12 W/m2
09:10 54.9 °F /  12.7 °C 53.4 °F /  11.9 °C 30in /  1015.2hPa WNW 6.9mph /  11.1km/h 8mph /  12.9km/h 95% 0in /  0.0mm 12 W/m2
09:15 54.9 °F /  12.7 °C 53.4 °F /  11.9 °C 30in /  1015.6hPa NW 4mph /  6.4km/h 5mph /  8km/h 95% 0.01in /  0.2mm 14 W/m2
09:20 54.9 °F /  12.7 °C 53.4 °F /  11.9 °C 30in /  1015.6hPa WSW 4.9mph /  7.9km/h 7mph /  11.3km/h 95% 0.01in /  0.2mm 16 W/m2
09:25 54.9 °F /  12.7 °C 53.4 °F /  11.9 °C 30in /  1015.6hPa West 0.9mph /  1.4km/h 9mph /  14.5km/h 95% 0.01in /  0.2mm 19 W/m2
09:46 54.9 °F /  12.7 °C 53.4 °F /  11.9 °C 30in /  1015.9hPa WNW 0.9mph /  1.4km/h 8mph /  12.9km/h 95% 0.01in /  0.2mm 26 W/m2
09:51 54.9 °F /  12.7 °C 53.4 °F /  11.9 °C 30in /  1015.9hPa WNW 4.9mph /  7.9km/h 9mph /  14.5km/h 95% 0.01in /  0.2mm 30 W/m2
09:56 55 °F /  12.8 °C 53.6 °F /  12 °C 30in /  1015.9hPa NW 2.9mph /  4.7km/h 8mph /  12.9km/h 95% 0.01in /  0.2mm 33 W/m2
10:01 55 °F /  12.8 °C 53.6 °F /  12 °C 30in /  1015.9hPa Calm   6mph /  9.7km/h 95% 0.01in /  0.2mm 40 W/m2
10:06 55 °F /  12.8 °C 53.6 °F /  12 °C 30in /  1016.3hPa West 6mph /  9.7km/h 14mph /  22.5km/h 95% 0.01in /  0.2mm 30 W/m2
10:11 55 °F /  12.8 °C 53.4 °F /  11.9 °C 30in /  1016.3hPa West 6.9mph /  11.1km/h 9mph /  14.5km/h 94% 0in /  0.0mm 23 W/m2
10:16 55.2 °F /  12.9 °C 53.6 °F /  12 °C 30in /  1016.3hPa NNW 2.9mph /  4.7km/h 9mph /  14.5km/h 94% 0in /  0.0mm 33 W/m2
10:21 55.2 °F /  12.9 °C 53.6 °F /  12 °C 30in /  1016.3hPa Calm   4mph /  6.4km/h 94% 0in /  0.0mm 25 W/m2
10:26 55.2 °F /  12.9 °C 53.6 °F /  12 °C 30in /  1016.3hPa WSW 2.9mph /  4.7km/h 9mph /  14.5km/h 94% 0in /  0.0mm 21 W/m2
10:31 55.2 °F /  12.9 °C 53.6 °F /  12 °C 30in /  1016.3hPa WNW 2.9mph /  4.7km/h 4mph /  6.4km/h 94% 0in /  0.0mm 44 W/m2
10:36 55.4 °F /  13 °C 53.8 °F /  12.1 °C 30in /  1016.3hPa NNW 4mph /  6.4km/h 10mph /  16.1km/h 94% 0in /  0.0mm 60 W/m2
10:41 55.4 °F /  13 °C 53.8 °F /  12.1 °C 30in /  1016.6hPa West 0.9mph /  1.4km/h 3mph /  4.8km/h 94% 0in /  0.0mm 53 W/m2
10:46 55.4 °F /  13 °C 53.8 °F /  12.1 °C 30in /  1016.6hPa WSW 0.9mph /  1.4km/h 10mph /  16.1km/h 94% 0in /  0.0mm 70 W/m2
10:51 55.6 °F /  13.1 °C 54 °F /  12.2 °C 30in /  1016.6hPa Calm   9mph /  14.5km/h 94% 0in /  0.0mm 32 W/m2
10:56 55.4 °F /  13 °C 53.8 °F /  12.1 °C 30in /  1016.6hPa NE 2.9mph /  4.7km/h 3mph /  4.8km/h 94% 0in /  0.0mm 49 W/m2
11:01 55.2 °F /  12.9 °C 53.6 °F /  12 °C 30in /  1016.9hPa East 2mph /  3.2km/h 2mph /  3.2km/h 94% 0in /  0.0mm 30 W/m2
11:06 55.2 °F /  12.9 °C 53.6 °F /  12 °C 30in /  1016.6hPa West 0.9mph /  1.4km/h 9mph /  14.5km/h 94% 0in /  0.0mm 21 W/m2
11:11 55.2 °F /  12.9 °C 53.8 °F /  12.1 °C 30in /  1016.9hPa West 0.9mph /  1.4km/h 4mph /  6.4km/h 95% 0in /  0.0mm 21 W/m2
11:16 55 °F /  12.8 °C 53.6 °F /  12 °C 30in /  1016.9hPa WNW 0.9mph /  1.4km/h 6mph /  9.7km/h 95% 0in /  0.0mm 23 W/m2
11:21 55 °F /  12.8 °C 53.6 °F /  12 °C 30in /  1016.6hPa WNW 4mph /  6.4km/h 10mph /  16.1km/h 95% 0in /  0.0mm 39 W/m2
11:26 55 °F /  12.8 °C 53.6 °F /  12 °C 30in /  1016.6hPa SSW 2mph /  3.2km/h 7mph /  11.3km/h 95% 0in /  0.0mm 47 W/m2
11:31 55 °F /  12.8 °C 53.6 °F /  12 °C 30in /  1016.6hPa NW 4mph /  6.4km/h 10mph /  16.1km/h 95% 0in /  0.0mm 39 W/m2
11:36 55 °F /  12.8 °C 53.6 °F /  12 °C 30in /  1016.6hPa NW 4.9mph /  7.9km/h 7mph /  11.3km/h 95% 0in /  0.0mm 49 W/m2
11:41 55 °F /  12.8 °C 53.6 °F /  12 °C 30in /  1016.6hPa WNW 2.9mph /  4.7km/h 3mph /  4.8km/h 95% 0.01in /  0.2mm 62 W/m2
11:46 55 °F /  12.8 °C 53.6 °F /  12 °C 30in /  1016.6hPa WNW 0.9mph /  1.4km/h 7mph /  11.3km/h 95% 0.01in /  0.2mm 54 W/m2
11:51 55.2 °F /  12.9 °C 53.8 °F /  12.1 °C 30in /  1016.6hPa SE 0.9mph /  1.4km/h 7mph /  11.3km/h 95% 0.01in /  0.2mm 53 W/m2
11:56 55.2 °F /  12.9 °C 53.8 °F /  12.1 °C 30in /  1016.6hPa WSW 2mph /  3.2km/h 11mph /  17.7km/h 95% 0.01in /  0.2mm 56 W/m2
12:01 55.2 °F /  12.9 °C 53.8 °F /  12.1 °C 30in /  1016.6hPa WSW 4mph /  6.4km/h 8mph /  12.9km/h 95% 0.01in /  0.2mm 67 W/m2
12:06 55.2 °F /  12.9 °C 53.8 °F /  12.1 °C 30in /  1016.6hPa SE 2.9mph /  4.7km/h 11mph /  17.7km/h 95% 0.02in /  0.5mm 65 W/m2
12:11 55.2 °F /  12.9 °C 53.8 °F /  12.1 °C 30in /  1016.6hPa Calm   4mph /  6.4km/h 95% 0.02in /  0.5mm 60 W/m2
12:16 55.2 °F /  12.9 °C 53.8 °F /  12.1 °C 30in /  1016.6hPa SSW 0.9mph /  1.4km/h 4mph /  6.4km/h 95% 0.02in /  0.5mm 58 W/m2
12:21 55.2 °F /  12.9 °C 53.8 °F /  12.1 °C 30in /  1016.6hPa West 6mph /  9.7km/h 7mph /  11.3km/h 95% 0.02in /  0.5mm 44 W/m2
12:26 55.2 °F /  12.9 °C 53.8 °F /  12.1 °C 30in /  1016.6hPa Calm   5mph /  8km/h 95% 0.02in /  0.5mm 33 W/m2
12:31 55.2 °F /  12.9 °C 53.8 °F /  12.1 °C 30in /  1016.6hPa North 2mph /  3.2km/h 3mph /  4.8km/h 95% 0.02in /  0.5mm 42 W/m2
12:36 55.2 °F /  12.9 °C 53.8 °F /  12.1 °C 30in /  1016.6hPa NW 4mph /  6.4km/h 8mph /  12.9km/h 95% 0.02in /  0.5mm 42 W/m2
12:41 55.2 °F /  12.9 °C 53.8 °F /  12.1 °C 30in /  1016.6hPa NW 2mph /  3.2km/h 7mph /  11.3km/h 95% 0.02in /  0.5mm 67 W/m2
12:46 55.2 °F /  12.9 °C 53.8 °F /  12.1 °C 30in /  1016.6hPa WNW 2.9mph /  4.7km/h 4mph /  6.4km/h 95% 0.02in /  0.5mm 65 W/m2
12:51 55.2 °F /  12.9 °C 53.8 °F /  12.1 °C 30in /  1016.6hPa WNW 0.9mph /  1.4km/h 7mph /  11.3km/h 95% 0.02in /  0.5mm 69 W/m2
12:56 55.4 °F /  13 °C 54 °F /  12.2 °C 30in /  1016.6hPa WNW 2mph /  3.2km/h 3mph /  4.8km/h 95% 0.02in /  0.5mm 65 W/m2
13:01 55.4 °F /  13 °C 54 °F /  12.2 °C 30in /  1016.6hPa West 2mph /  3.2km/h 3mph /  4.8km/h 95% 0.02in /  0.5mm 54 W/m2
13:06 55.4 °F /  13 °C 54 °F /  12.2 °C 30in /  1016.6hPa WNW 2mph /  3.2km/h 7mph /  11.3km/h 95% 0.02in /  0.5mm 53 W/m2
13:11 55.4 °F /  13 °C 54 °F /  12.2 °C 30in /  1016.3hPa WSW 4.9mph /  7.9km/h 7mph /  11.3km/h 95% 0.02in /  0.5mm 54 W/m2
13:16 55.6 °F /  13.1 °C 54.1 °F /  12.3 °C 30in /  1016.3hPa NNW 2.9mph /  4.7km/h 6mph /  9.7km/h 95% 0.02in /  0.5mm 63 W/m2
13:21 55.6 °F /  13.1 °C 54.1 °F /  12.3 °C 30in /  1016.3hPa SSW 6mph /  9.7km/h 6mph /  9.7km/h 95% 0.02in /  0.5mm 56 W/m2
13:26 55.6 °F /  13.1 °C 54.1 °F /  12.3 °C 30in /  1016.3hPa NW 4mph /  6.4km/h 4mph /  6.4km/h 95% 0.02in /  0.5mm 49 W/m2
13:31 55.6 °F /  13.1 °C 54.1 °F /  12.3 °C 30in /  1016.3hPa SSW 6mph /  9.7km/h 12mph /  19.3km/h 95% 0.02in /  0.5mm 53 W/m2
13:36 55.6 °F /  13.1 °C 54.1 °F /  12.3 °C 30in /  1016.3hPa NW 2mph /  3.2km/h 4mph /  6.4km/h 95% 0.02in /  0.5mm 47 W/m2
13:41 55.6 °F /  13.1 °C 54.1 °F /  12.3 °C 30in /  1016.3hPa WNW 2mph /  3.2km/h 11mph /  17.7km/h 95% 0.02in /  0.5mm 51 W/m2
13:46 55.8 °F /  13.2 °C 54.3 °F /  12.4 °C 30in /  1016.3hPa West 0.9mph /  1.4km/h 3mph /  4.8km/h 95% 0.01in /  0.2mm 70 W/m2
13:51 55.8 °F /  13.2 °C 54.3 °F /  12.4 °C 30in /  1016.3hPa SW 4mph /  6.4km/h 6mph /  9.7km/h 95% 0.01in /  0.2mm 56 W/m2
13:56 55.8 °F /  13.2 °C 54.3 °F /  12.4 °C 30in /  1016.3hPa WSW 2.9mph /  4.7km/h 9mph /  14.5km/h 95% 0.02in /  0.5mm 70 W/m2
14:01 55.9 °F /  13.3 °C 54.5 °F /  12.5 °C 30in /  1016.3hPa NW 6.9mph /  11.1km/h 8mph /  12.9km/h 95% 0.02in /  0.5mm 54 W/m2
14:06 55.9 °F /  13.3 °C 54.5 °F /  12.5 °C 30in /  1016.3hPa NW 6mph /  9.7km/h 8mph /  12.9km/h 95% 0.02in /  0.5mm 47 W/m2
14:11 55.9 °F /  13.3 °C 54.5 °F /  12.5 °C 30in /  1016.3hPa NW 2mph /  3.2km/h 3mph /  4.8km/h 95% 0.02in /  0.5mm 42 W/m2
14:16 55.9 °F /  13.3 °C 54.5 °F /  12.5 °C 30in /  1015.9hPa SSE 2.9mph /  4.7km/h 5mph /  8km/h 95% 0.02in /  0.5mm 37 W/m2
14:21 55.9 °F /  13.3 °C 54.5 °F /  12.5 °C 30in /  1015.9hPa South 2mph /  3.2km/h 5mph /  8km/h 95% 0.02in /  0.5mm 33 W/m2
14:26 55.9 °F /  13.3 °C 54.5 °F /  12.5 °C 30in /  1015.9hPa North 2mph /  3.2km/h 3mph /  4.8km/h 95% 0.02in /  0.5mm 33 W/m2
14:31 55.8 °F /  13.2 °C 54.3 °F /  12.4 °C 30in /  1015.9hPa NE 0.9mph /  1.4km/h 8mph /  12.9km/h 95% 0.02in /  0.5mm 42 W/m2
14:36 55.9 °F /  13.3 °C 54.9 °F /  12.7 °C 30in /  1015.9hPa NNW 2.9mph /  4.7km/h 3mph /  4.8km/h 96% 0.02in /  0.5mm 32 W/m2
14:41 55.9 °F /  13.3 °C 54.5 °F /  12.5 °C 30in /  1015.9hPa NNE 0.9mph /  1.4km/h 5mph /  8km/h 95% 0.02in /  0.5mm 26 W/m2
14:46 55.9 °F /  13.3 °C 54.9 °F /  12.7 °C 30in /  1015.9hPa NW 0.9mph /  1.4km/h 10mph /  16.1km/h 96% 0.02in /  0.5mm 25 W/m2
14:51 55.9 °F /  13.3 °C 54.9 °F /  12.7 °C 30in /  1015.9hPa North 2.9mph /  4.7km/h 3mph /  4.8km/h 96% 0.03in /  0.8mm 21 W/m2
14:56 55.9 °F /  13.3 °C 54.9 °F /  12.7 °C 30in /  1015.9hPa NW 0.9mph /  1.4km/h 3mph /  4.8km/h 96% 0.02in /  0.5mm 16 W/m2
15:01 55.9 °F /  13.3 °C 54.9 °F /  12.7 °C 30in /  1015.9hPa West 0.9mph /  1.4km/h 11mph /  17.7km/h 96% 0.02in /  0.5mm 16 W/m2
15:06 55.9 °F /  13.3 °C 54.9 °F /  12.7 °C 30in /  1016.3hPa WNW 2.9mph /  4.7km/h 8mph /  12.9km/h 96% 0.02in /  0.5mm 9 W/m2
15:11 55.9 °F /  13.3 °C 54.5 °F /  12.5 °C 30in /  1016.3hPa WSW 2.9mph /  4.7km/h 11mph /  17.7km/h 95% 0.02in /  0.5mm 12 W/m2
15:16 55.9 °F /  13.3 °C 54.5 °F /  12.5 °C 30in /  1016.3hPa Calm   3mph /  4.8km/h 95% 0.02in /  0.5mm 18 W/m2
15:21 55.9 °F /  13.3 °C 54.5 °F /  12.5 °C 30in /  1016.3hPa SE 4mph /  6.4km/h 7mph /  11.3km/h 95% 0.02in /  0.5mm 18 W/m2
15:39 56.1 °F /  13.4 °C 54.7 °F /  12.6 °C 30in /  1016.3hPa North 2mph /  3.2km/h 6mph /  9.7km/h 95% 0.02in /  0.5mm 14 W/m2
15:44 56.1 °F /  13.4 °C 54.7 °F /  12.6 °C 30in /  1016.3hPa WSW 0.9mph /  1.4km/h 7mph /  11.3km/h 95% 0.02in /  0.5mm 16 W/m2
15:49 56.1 °F /  13.4 °C 54.7 °F /  12.6 °C 30in /  1016.3hPa SW 0.9mph /  1.4km/h 3mph /  4.8km/h 95% 0.02in /  0.5mm 19 W/m2
15:54 56.1 °F /  13.4 °C 54.7 °F /  12.6 °C 30in /  1016.3hPa NW 0.9mph /  1.4km/h 4mph /  6.4km/h 95% 0.03in /  0.8mm 16 W/m2
15:59 56.1 °F /  13.4 °C 54.7 °F /  12.6 °C 30in /  1016.6hPa West 6mph /  9.7km/h 9mph /  14.5km/h 95% 0.03in /  0.8mm 21 W/m2
16:04 56.1 °F /  13.4 °C 54.7 °F /  12.6 °C 30in /  1016.3hPa NNW 2.9mph /  4.7km/h 8mph /  12.9km/h 95% 0.03in /  0.8mm 12 W/m2
16:09 56.1 °F /  13.4 °C 54.7 °F /  12.6 °C 30in /  1016.3hPa WNW 2.9mph /  4.7km/h 4mph /  6.4km/h 95% 0.03in /  0.8mm 11 W/m2
16:14 56.1 °F /  13.4 °C 54.7 °F /  12.6 °C 30in /  1016.3hPa NW 0.9mph /  1.4km/h 4mph /  6.4km/h 95% 0.03in /  0.8mm 7 W/m2
16:19 56.1 °F /  13.4 °C 54.7 °F /  12.6 °C 30in /  1016.3hPa NE 0.9mph /  1.4km/h 5mph /  8km/h 95% 0.02in /  0.5mm 7 W/m2
16:24 56.1 °F /  13.4 °C 54.7 °F /  12.6 °C 30in /  1016.3hPa WSW 8.1mph /  13km/h 10mph /  16.1km/h 95% 0.03in /  0.8mm 5 W/m2
16:29 56.3 °F /  13.5 °C 54.9 °F /  12.7 °C 30in /  1016.3hPa SSW 0.9mph /  1.4km/h 7mph /  11.3km/h 95% 0.03in /  0.8mm 0 W/m2
16:34 56.3 °F /  13.5 °C 54.9 °F /  12.7 °C 30in /  1016.3hPa WSW 0.9mph /  1.4km/h 3mph /  4.8km/h 95% 0.03in /  0.8mm 0 W/m2
16:39 56.3 °F /  13.5 °C 54.9 °F /  12.7 °C 30in /  1016.3hPa WNW 2mph /  3.2km/h 8mph /  12.9km/h 95% 0.03in /  0.8mm 0 W/m2
16:44 56.5 °F /  13.6 °C 55 °F /  12.8 °C 30in /  1016.3hPa Calm   3mph /  4.8km/h 95% 0.02in /  0.5mm 0 W/m2
16:49 56.5 °F /  13.6 °C 55 °F /  12.8 °C 30in /  1016.3hPa NW 0.9mph /  1.4km/h 8mph /  12.9km/h 95% 0.02in /  0.5mm 0 W/m2
16:54 56.3 °F /  13.5 °C 54.9 °F /  12.7 °C 30in /  1016.3hPa ENE 0.9mph /  1.4km/h 2mph /  3.2km/h 95% 0.02in /  0.5mm 0 W/m2
16:59 56.1 °F /  13.4 °C 54.7 °F /  12.6 °C 30in /  1016.3hPa Calm   3mph /  4.8km/h 95% 0.02in /  0.5mm 0 W/m2
17:04 56.1 °F /  13.4 °C 54.7 °F /  12.6 °C 30in /  1016.3hPa SE 2mph /  3.2km/h 6mph /  9.7km/h 95% 0.02in /  0.5mm 0 W/m2
17:09 56.1 °F /  13.4 °C 54.7 °F /  12.6 °C 30in /  1016.6hPa WSW 2mph /  3.2km/h 6mph /  9.7km/h 95% 0.02in /  0.5mm 0 W/m2
17:14 56.1 °F /  13.4 °C 54.7 °F /  12.6 °C 30in /  1016.3hPa North 0.9mph /  1.4km/h 3mph /  4.8km/h 95% 0.02in /  0.5mm 0 W/m2
17:19 56.1 °F /  13.4 °C 54.7 °F /  12.6 °C 30in /  1016.3hPa East 0.9mph /  1.4km/h 3mph /  4.8km/h 95% 0.02in /  0.5mm 0 W/m2
17:24 56.1 °F /  13.4 °C 54.7 °F /  12.6 °C 30in /  1016.3hPa West 0.9mph /  1.4km/h 4mph /  6.4km/h 95% 0.02in /  0.5mm 0 W/m2
17:29 56.1 °F /  13.4 °C 54.7 °F /  12.6 °C 30in /  1016.3hPa NNW 6mph /  9.7km/h 8mph /  12.9km/h 95% 0.02in /  0.5mm 0 W/m2
17:34 56.3 °F /  13.5 °C 54.9 °F /  12.7 °C 30in /  1016.3hPa Calm   9mph /  14.5km/h 95% 0.02in /  0.5mm 0 W/m2
17:39 56.3 °F /  13.5 °C 54.9 °F /  12.7 °C 30in /  1016.3hPa SSW 2.9mph /  4.7km/h 12mph /  19.3km/h 95% 0.02in /  0.5mm 0 W/m2
17:56 56.3 °F /  13.5 °C 54.9 °F /  12.7 °C 30in /  1016.3hPa WSW 2mph /  3.2km/h 6mph /  9.7km/h 95% 0.02in /  0.5mm 0 W/m2
18:01 56.3 °F /  13.5 °C 54.9 °F /  12.7 °C 30in /  1016.3hPa NNW 2mph /  3.2km/h 3mph /  4.8km/h 95% 0.01in /  0.2mm 0 W/m2
18:06 56.3 °F /  13.5 °C 54.9 °F /  12.7 °C 30in /  1016.3hPa Calm   6mph /  9.7km/h 95% 0.01in /  0.2mm 0 W/m2
18:11 56.3 °F /  13.5 °C 54.9 °F /  12.7 °C 30in /  1016.3hPa NE 2.9mph /  4.7km/h 12mph /  19.3km/h 95% 0.02in /  0.5mm 0 W/m2
18:16 56.5 °F /  13.6 °C 55 °F /  12.8 °C 30in /  1016.3hPa Calm   3mph /  4.8km/h 95% 0.02in /  0.5mm 0 W/m2
18:21 56.5 °F /  13.6 °C 55 °F /  12.8 °C 30in /  1016.3hPa North 2.9mph /  4.7km/h 4mph /  6.4km/h 95% 0.02in /  0.5mm 0 W/m2
18:26 56.5 °F /  13.6 °C 55 °F /  12.8 °C 30in /  1016.3hPa NW 4mph /  6.4km/h 5mph /  8km/h 95% 0.02in /  0.5mm 0 W/m2
18:31 56.5 °F /  13.6 °C 55 °F /  12.8 °C 30in /  1016.3hPa NNE 0.9mph /  1.4km/h 3mph /  4.8km/h 95% 0.02in /  0.5mm 0 W/m2
18:36 56.5 °F /  13.6 °C 55 °F /  12.8 °C 30in /  1016.3hPa Calm   2mph /  3.2km/h 95% 0.02in /  0.5mm 0 W/m2
18:41 56.5 °F /  13.6 °C 55 °F /  12.8 °C 30in /  1016.3hPa WSW 0.9mph /  1.4km/h 4mph /  6.4km/h 95% 0.02in /  0.5mm 0 W/m2
18:46 56.5 °F /  13.6 °C 55 °F /  12.8 °C 30in /  1016.3hPa NW 2.9mph /  4.7km/h 3mph /  4.8km/h 95% 0.02in /  0.5mm 0 W/m2
18:51 56.3 °F /  13.5 °C 54.9 °F /  12.7 °C 30in /  1016.3hPa Calm     95% 0.02in /  0.5mm 0 W/m2
18:56 56.1 °F /  13.4 °C 54.7 °F /  12.6 °C 30in /  1015.9hPa North 0.9mph /  1.4km/h 3mph /  4.8km/h 95% 0.02in /  0.5mm 0 W/m2
19:01 56.1 °F /  13.4 °C 54.7 °F /  12.6 °C 30in /  1015.9hPa NNW 0.9mph /  1.4km/h 3mph /  4.8km/h 95% 0.02in /  0.5mm 0 W/m2
19:06 56.1 °F /  13.4 °C 54.7 °F /  12.6 °C 30in /  1015.9hPa West 2mph /  3.2km/h 2mph /  3.2km/h 95% 0.02in /  0.5mm 0 W/m2
19:11 56.1 °F /  13.4 °C 54.7 °F /  12.6 °C 30in /  1015.9hPa Calm   2mph /  3.2km/h 95% 0.02in /  0.5mm 0 W/m2
19:16 56.1 °F /  13.4 °C 54.7 °F /  12.6 °C 30in /  1016.3hPa SSW 0.9mph /  1.4km/h 6mph /  9.7km/h 95% 0.02in /  0.5mm 0 W/m2
19:21 56.1 °F /  13.4 °C 54.7 °F /  12.6 °C 30in /  1016.3hPa West 2.9mph /  4.7km/h 15mph /  24.1km/h 95% 0.02in /  0.5mm 0 W/m2
19:26 56.3 °F /  13.5 °C 54.9 °F /  12.7 °C 30in /  1015.9hPa WNW 2mph /  3.2km/h 8mph /  12.9km/h 95% 0.03in /  0.8mm 0 W/m2
19:31 56.3 °F /  13.5 °C 54.9 °F /  12.7 °C 30in /  1015.9hPa SSW 0.9mph /  1.4km/h 15mph /  24.1km/h 95% 0.03in /  0.8mm 0 W/m2
19:36 56.5 °F /  13.6 °C 55 °F /  12.8 °C 30in /  1016.3hPa NW 2.9mph /  4.7km/h 9mph /  14.5km/h 95% 0.03in /  0.8mm 0 W/m2
19:41 56.5 °F /  13.6 °C 55 °F /  12.8 °C 30in /  1015.9hPa NNW 4mph /  6.4km/h 11mph /  17.7km/h 95% 0.03in /  0.8mm 0 W/m2
19:46 56.7 °F /  13.7 °C 55.2 °F /  12.9 °C 30in /  1016.3hPa West 4mph /  6.4km/h 8mph /  12.9km/h 95% 0.03in /  0.8mm 0 W/m2
19:51 56.7 °F /  13.7 °C 55 °F /  12.8 °C 30in /  1015.9hPa Calm   5mph /  8km/h 94% 0.02in /  0.5mm 0 W/m2
19:56 56.5 °F /  13.6 °C 54.9 °F /  12.7 °C 30in /  1015.9hPa WSW 0.9mph /  1.4km/h 9mph /  14.5km/h 94% 0.02in /  0.5mm 0 W/m2
20:01 56.5 °F /  13.6 °C 54.9 °F /  12.7 °C 30in /  1015.9hPa North 0.9mph /  1.4km/h 3mph /  4.8km/h 94% 0.02in /  0.5mm 0 W/m2
20:06 56.5 °F /  13.6 °C 54.9 °F /  12.7 °C 30in /  1015.9hPa NW 4mph /  6.4km/h 7mph /  11.3km/h 94% 0.02in /  0.5mm 0 W/m2
20:11 56.5 °F /  13.6 °C 54.9 °F /  12.7 °C 30in /  1015.9hPa NE 2.9mph /  4.7km/h 8mph /  12.9km/h 94% 0.02in /  0.5mm 0 W/m2
20:16 56.5 °F /  13.6 °C 54.9 °F /  12.7 °C 30in /  1015.9hPa SSW 4mph /  6.4km/h 8mph /  12.9km/h 94% 0.02in /  0.5mm 0 W/m2
20:21 56.7 °F /  13.7 °C 55 °F /  12.8 °C 30in /  1015.9hPa West 2mph /  3.2km/h 9mph /  14.5km/h 94% 0.01in /  0.2mm 0 W/m2
20:26 56.7 °F /  13.7 °C 55 °F /  12.8 °C 30in /  1015.9hPa WNW 2mph /  3.2km/h 8mph /  12.9km/h 94% 0in /  0.0mm 0 W/m2
20:31 56.7 °F /  13.7 °C 55 °F /  12.8 °C 30in /  1016.3hPa SW 0.9mph /  1.4km/h 5mph /  8km/h 94% 0in /  0.0mm 0 W/m2
20:36 56.7 °F /  13.7 °C 55 °F /  12.8 °C 30in /  1015.9hPa NNW 2.9mph /  4.7km/h 5mph /  8km/h 94% 0in /  0.0mm 0 W/m2
20:41 56.7 °F /  13.7 °C 55 °F /  12.8 °C 30in /  1016.3hPa NNW 2mph /  3.2km/h 4mph /  6.4km/h 94% 0in /  0.0mm 0 W/m2
21:00 56.3 °F /  13.5 °C 54.7 °F /  12.6 °C 30in /  1015.9hPa WNW 4mph /  6.4km/h 4mph /  6.4km/h 94% 0in /  0.0mm 0 W/m2
21:06 56.3 °F /  13.5 °C 54.7 °F /  12.6 °C 30in /  1015.9hPa NW 2.9mph /  4.7km/h 10mph /  16.1km/h 94% 0in /  0.0mm 0 W/m2
21:11 56.3 °F /  13.5 °C 54.7 °F /  12.6 °C 30in /  1015.9hPa NW 0.9mph /  1.4km/h 3mph /  4.8km/h 94% 0in /  0.0mm 0 W/m2
21:16 56.5 °F /  13.6 °C 54.9 °F /  12.7 °C 30in /  1015.9hPa North 2mph /  3.2km/h 10mph /  16.1km/h 94% 0in /  0.0mm 0 W/m2
21:21 56.5 °F /  13.6 °C 54.9 °F /  12.7 °C 30in /  1015.9hPa West 6mph /  9.7km/h 13mph /  20.9km/h 94% 0in /  0.0mm 0 W/m2
21:26 56.5 °F /  13.6 °C 54.9 °F /  12.7 °C 30in /  1015.9hPa WSW 2.9mph /  4.7km/h 9mph /  14.5km/h 94% 0in /  0.0mm 0 W/m2
21:31 56.5 °F /  13.6 °C 54.9 °F /  12.7 °C 30in /  1015.9hPa NW 6mph /  9.7km/h 13mph /  20.9km/h 94% 0in /  0.0mm 0 W/m2
21:36 56.5 °F /  13.6 °C 54.9 °F /  12.7 °C 30in /  1015.9hPa WNW 0.9mph /  1.4km/h 7mph /  11.3km/h 94% 0in /  0.0mm 0 W/m2
21:41 56.5 °F /  13.6 °C 54.9 °F /  12.7 °C 30in /  1015.9hPa NNW 0.9mph /  1.4km/h 9mph /  14.5km/h 94% 0in /  0.0mm 0 W/m2
21:46 56.5 °F /  13.6 °C 54.9 °F /  12.7 °C 30in /  1015.9hPa NW 4mph /  6.4km/h 8mph /  12.9km/h 94% 0in /  0.0mm 0 W/m2
21:51 56.5 °F /  13.6 °C 54.9 °F /  12.7 °C 30in /  1015.9hPa WNW 6.9mph /  11.1km/h 9mph /  14.5km/h 94% 0in /  0.0mm 0 W/m2
21:56 56.5 °F /  13.6 °C 54.9 °F /  12.7 °C 30in /  1016.3hPa WNW 2.9mph /  4.7km/h 5mph /  8km/h 94% 0in /  0.0mm 0 W/m2
22:01 56.5 °F /  13.6 °C 54.9 °F /  12.7 °C 30in /  1015.9hPa ESE 6mph /  9.7km/h 9mph /  14.5km/h 94% 0in /  0.0mm 0 W/m2
22:06 56.5 °F /  13.6 °C 54.9 °F /  12.7 °C 30in /  1015.6hPa ESE 2mph /  3.2km/h 3mph /  4.8km/h 94% 0in /  0.0mm 0 W/m2
22:11 56.5 °F /  13.6 °C 54.9 °F /  12.7 °C 30in /  1015.6hPa NNW 2mph /  3.2km/h 9mph /  14.5km/h 94% 0in /  0.0mm 0 W/m2
22:16 56.3 °F /  13.5 °C 54.7 °F /  12.6 °C 30in /  1015.6hPa West 0.9mph /  1.4km/h 4mph /  6.4km/h 94% 0in /  0.0mm 0 W/m2
22:21 56.3 °F /  13.5 °C 54.9 °F /  12.7 °C 30in /  1015.6hPa Calm   3mph /  4.8km/h 95% 0in /  0.0mm 0 W/m2
22:26 56.3 °F /  13.5 °C 54.9 °F /  12.7 °C 30in /  1015.6hPa SE 0.9mph /  1.4km/h 3mph /  4.8km/h 95% 0in /  0.0mm 0 W/m2
22:31 56.3 °F /  13.5 °C 54.9 °F /  12.7 °C 30in /  1015.6hPa West 2.9mph /  4.7km/h 7mph /  11.3km/h 95% 0in /  0.0mm 0 W/m2
22:36 56.5 °F /  13.6 °C 55 °F /  12.8 °C 30in /  1015.6hPa NW 4mph /  6.4km/h 7mph /  11.3km/h 95% 0in /  0.0mm 0 W/m2
22:41 56.5 °F /  13.6 °C 54.9 °F /  12.7 °C 30in /  1015.6hPa Calm   4mph /  6.4km/h 94% 0in /  0.0mm 0 W/m2
22:46 56.5 °F /  13.6 °C 54.9 °F /  12.7 °C 30in /  1015.6hPa WNW 2mph /  3.2km/h 2mph /  3.2km/h 94% 0in /  0.0mm 0 W/m2
22:51 56.5 °F /  13.6 °C 54.9 °F /  12.7 °C 30in /  1015.6hPa Calm   1mph /  1.6km/h 94% 0in /  0.0mm 0 W/m2
22:56 56.5 °F /  13.6 °C 54.9 °F /  12.7 °C 30in /  1015.6hPa Calm   8mph /  12.9km/h 94% 0in /  0.0mm 0 W/m2
23:01 56.7 °F /  13.7 °C 55 °F /  12.8 °C 30in /  1015.6hPa ENE 2mph /  3.2km/h 6mph /  9.7km/h 94% 0in /  0.0mm 0 W/m2
23:06 56.7 °F /  13.7 °C 55 °F /  12.8 °C 30in /  1015.6hPa NNE 2mph /  3.2km/h 8mph /  12.9km/h 94% 0in /  0.0mm 0 W/m2
23:11 56.8 °F /  13.8 °C 55.2 °F /  12.9 °C 30in /  1015.6hPa NNE 4mph /  6.4km/h 7mph /  11.3km/h 94% 0in /  0.0mm 0 W/m2
23:16 56.8 °F /  13.8 °C 55.2 °F /  12.9 °C 30in /  1015.6hPa North 2mph /  3.2km/h 3mph /  4.8km/h 94% 0in /  0.0mm 0 W/m2
23:21 56.8 °F /  13.8 °C 55.2 °F /  12.9 °C 30in /  1015.6hPa West 0.9mph /  1.4km/h 6mph /  9.7km/h 94% 0in /  0.0mm 0 W/m2
23:26 56.8 °F /  13.8 °C 55.2 °F /  12.9 °C 30in /  1015.6hPa NW 4.9mph /  7.9km/h 6mph /  9.7km/h 94% 0in /  0.0mm 0 W/m2
23:31 57 °F /  13.9 °C 55 °F /  12.8 °C 30in /  1015.6hPa West 0.9mph /  1.4km/h 11mph /  17.7km/h 93% 0in /  0.0mm 0 W/m2
23:36 57 °F /  13.9 °C 55 °F /  12.8 °C 30in /  1015.6hPa WNW 2mph /  3.2km/h 12mph /  19.3km/h 93% 0in /  0.0mm 0 W/m2
23:41 57.2 °F /  14 °C 55.2 °F /  12.9 °C 30in /  1015.6hPa WSW 4mph /  6.4km/h 4mph /  6.4km/h 93% 0in /  0.0mm 0 W/m2
23:46 57.2 °F /  14 °C 54.9 °F /  12.7 °C 30in /  1015.6hPa ENE 0.9mph /  1.4km/h 12mph /  19.3km/h 92% 0in /  0.0mm 0 W/m2
23:51 57.2 °F /  14 °C 54.9 °F /  12.7 °C 30in /  1015.6hPa WNW 2.9mph /  4.7km/h 6mph /  9.7km/h 92% 0in /  0.0mm 0 W/m2
23:56 57.2 °F /  14 °C 54.9 °F /  12.7 °C 30in /  1015.6hPa ESE 4mph /  6.4km/h 4mph /  6.4km/h 92% 0in /  0.0mm 0 W/m2
Juneau County Weather
Compliments of Weather Underground - 4 mb